Time;durP1;ratioP1;P1;durP2;ratioP2;P2;SDS_P1;SDS_P2;PMS_P1;PMS_P2;Temp;Humidity;BMP_temperature;BMP_pressure;BME280_temperature;BME280_humidity;BME280_pressure;Samples;Min_cycle;Max_cycle;Signal;HPM_P1;HPM_P2
2022/03/09 00:01:42;;;;;;;70.68;39.13;;;;;;;10.93;99.19;98720.75;6165657;23;20450;-80
2022/03/09 00:04:08;;;;;;;72.60;38.97;;;;;;;10.91;98.02;98733.28;6189504;23;20017;-80
2022/03/09 00:06:33;;;;;;;68.38;37.20;;;;;;;10.92;98.70;98728.88;6165357;23;20043;-82
2022/03/09 00:08:59;;;;;;;61.05;33.97;;;;;;;10.95;98.38;98733.69;6215231;23;20379;-81
2022/03/09 00:11:25;;;;;;;60.92;34.08;;;;;;;10.94;98.76;98721.59;6189734;23;20012;-82
2022/03/09 00:13:50;;;;;;;63.25;35.70;;;;;;;10.67;100.00;98709.28;6189129;23;20335;-82
2022/03/09 00:16:16;;;;;;;57.03;33.38;;;;;;;10.73;98.80;98706.84;6165188;23;20013;-81
2022/03/09 00:18:41;;;;;;;63.42;34.65;;;;;;;10.73;99.69;98702.44;6215792;23;20009;-81
2022/03/09 00:21:07;;;;;;;64.53;36.35;;;;;;;10.80;100.00;98702.41;6188887;23;20351;-81
2022/03/09 00:23:32;;;;;;;60.47;32.88;;;;;;;10.62;100.00;98705.66;6216547;23;20013;-81
2022/03/09 00:25:58;;;;;;;60.25;33.25;;;;;;;10.53;100.00;98712.91;6189200;23;20024;-82
2022/03/09 00:28:24;;;;;;;65.68;35.17;;;;;;;10.64;100.00;98725.44;6188707;23;20047;-83
2022/03/09 00:30:50;;;;;;;69.18;35.17;;;;;;;10.56;100.00;98707.25;6189724;23;20020;-83
2022/03/09 00:33:18;;;;;;;61.33;34.20;;;;;;;10.75;100.00;98707.47;6189436;23;20020;-83
2022/03/09 00:35:44;;;;;;;62.00;35.22;;;;;;;10.79;100.00;98716.53;6189342;23;20363;-83
2022/03/09 00:38:10;;;;;;;64.57;36.15;;;;;;;10.91;100.00;98720.16;6165298;23;20075;-83
2022/03/09 00:40:36;;;;;;;69.93;35.55;;;;;;;10.98;100.00;98714.91;6189136;23;20855;-83
2022/03/09 00:43:02;;;;;;;64.68;36.22;;;;;;;11.04;100.00;98710.66;6189819;23;20048;-83
2022/03/09 00:45:28;;;;;;;61.40;36.40;;;;;;;11.05;100.00;98720.94;6189503;23;20104;-82
2022/03/09 00:47:53;;;;;;;58.90;33.40;;;;;;;11.03;100.00;98725.59;6189065;23;20012;-83
2022/03/09 00:50:19;;;;;;;59.10;35.00;;;;;;;11.04;100.00;98718.53;6216322;23;20008;-83
2022/03/09 00:52:47;;;;;;;61.55;34.70;;;;;;;11.19;100.00;98723.53;6190193;23;20100;-82
2022/03/09 00:55:13;;;;;;;65.80;34.58;;;;;;;11.18;100.00;98727.19;6189258;23;20063;-82
2022/03/09 00:57:39;;;;;;;60.92;33.95;;;;;;;11.28;100.00;98714.41;6188927;23;20015;-82
2022/03/09 01:00:06;;;;;;;61.58;34.83;;;;;;;11.32;100.00;98727.94;6164371;23;20027;-81
2022/03/09 01:02:31;;;;;;;57.75;33.20;;;;;;;11.38;100.00;98719.22;6188373;23;20015;-82
2022/03/09 01:04:57;;;;;;;61.20;34.05;;;;;;;11.49;100.00;98720.41;6188771;23;20012;-82
2022/03/09 01:07:23;;;;;;;65.50;36.72;;;;;;;11.41;100.00;98719.63;6188228;23;20013;-83
2022/03/09 01:09:49;;;;;;;59.00;33.65;;;;;;;11.34;100.00;98718.03;6189176;23;20507;-82
2022/03/09 01:12:15;;;;;;;68.25;35.25;;;;;;;11.42;100.00;98715.19;6189596;23;20462;-82
2022/03/09 01:14:41;;;;;;;64.28;35.67;;;;;;;11.53;100.00;98725.03;6216447;23;20004;-83
2022/03/09 01:17:07;;;;;;;59.63;34.67;;;;;;;11.50;100.00;98728.09;6215851;23;20020;-83
2022/03/09 01:19:33;;;;;;;58.88;34.67;;;;;;;11.41;100.00;98731.97;6189357;23;20020;-84
2022/03/09 01:21:58;;;;;;;62.92;35.55;;;;;;;11.19;100.00;98732.22;6190271;23;20009;-84
2022/03/09 01:24:24;;;;;;;62.53;36.35;;;;;;;11.35;100.00;98720.47;6189632;23;20099;-83
2022/03/09 01:26:50;;;;;;;61.80;34.13;;;;;;;11.48;100.00;98713.53;6216238;23;20017;-83
2022/03/09 01:29:16;;;;;;;64.40;35.75;;;;;;;11.40;100.00;98717.22;6189684;23;20087;-81
2022/03/09 01:31:42;;;;;;;64.70;37.67;;;;;;;11.21;100.00;98724.97;6164344;23;20028;-84
2022/03/09 01:34:09;;;;;;;67.05;35.95;;;;;;;11.32;100.00;98720.91;6165223;23;20015;-81
2022/03/09 01:36:37;;;;;;;66.28;38.17;;;;;;;10.91;100.00;98714.13;6215549;23;20112;-84
2022/03/09 01:39:07;;;;;;;74.28;38.05;;;;;;;11.00;100.00;98718.94;6217186;23;20083;-82
2022/03/09 01:41:32;;;;;;;68.78;37.80;;;;;;;10.88;100.00;98717.13;6189365;23;20008;-84
2022/03/09 01:44:11;;;;;;;65.95;37.40;;;;;;;11.02;100.00;98746.81;6216876;23;20016;-82
2022/03/09 01:46:39;;;;;;;66.85;35.38;;;;;;;10.98;100.00;98739.34;6164449;23;20088;-81
2022/03/09 01:49:06;;;;;;;65.88;37.00;;;;;;;11.03;100.00;98737.94;6164015;23;20021;-82
2022/03/09 01:51:34;;;;;;;68.90;39.30;;;;;;;10.86;100.00;98727.84;6164774;23;20017;-82
2022/03/09 01:54:00;;;;;;;72.22;38.63;;;;;;;10.92;100.00;98731.50;6187653;23;20092;-82
2022/03/09 01:56:26;;;;;;;71.72;39.85;;;;;;;10.90;100.00;98731.69;6215192;23;20122;-82
2022/03/09 01:58:52;;;;;;;69.13;38.22;;;;;;;10.91;100.00;98730.66;6188210;23;20008;-81
2022/03/09 02:01:18;;;;;;;71.18;40.70;;;;;;;10.78;100.00;98725.41;6214955;23;20008;-82
2022/03/09 02:03:43;;;;;;;65.88;38.08;;;;;;;10.80;100.00;98726.03;6188775;23;20009;-82
2022/03/09 02:06:10;;;;;;;68.43;38.45;;;;;;;10.85;100.00;98726.25;6164045;23;20016;-83
2022/03/09 02:11:21;;;;;;;68.25;37.13;;;;;;;10.72;100.00;98716.56;6215176;23;20013;-82
2022/03/09 02:13:47;;;;;;;71.22;39.20;;;;;;;10.46;100.00;98717.38;6215709;23;20028;-83
2022/03/09 02:16:14;;;;;;;74.97;38.80;;;;;;;10.11;100.00;98692.91;6188694;23;20009;-81
2022/03/09 02:18:40;;;;;;;69.68;38.80;;;;;;;10.17;100.00;98693.91;6188865;23;20443;-82
2022/03/09 02:21:10;;;;;;;70.15;38.60;;;;;;;9.86;100.00;98682.16;6164031;23;20028;-83
2022/03/09 02:23:35;;;;;;;75.65;41.10;;;;;;;9.92;100.00;98691.03;6188369;23;20008;-83
2022/03/09 02:26:01;;;;;;;81.28;42.30;;;;;;;9.80;100.00;98693.44;6163897;23;20439;-82
2022/03/09 02:28:27;;;;;;;83.35;44.13;;;;;;;9.75;100.00;98686.16;6188409;23;20016;-81
2022/03/09 02:30:56;;;;;;;83.75;41.55;;;;;;;9.77;100.00;98686.78;6188732;23;20092;-83
2022/03/09 02:33:22;;;;;;;71.38;38.25;;;;;;;9.70;100.00;98691.19;6215274;23;20091;-83
2022/03/09 02:35:51;;;;;;;80.28;40.50;;;;;;;9.67;100.00;98694.22;6163585;23;20067;-81
2022/03/09 02:38:17;;;;;;;79.75;41.90;;;;;;;9.44;100.00;98687.50;6188925;23;20012;-83
2022/03/09 02:40:43;;;;;;;74.88;40.28;;;;;;;9.48;100.00;98680.84;6188645;23;20008;-83
2022/03/09 02:43:08;;;;;;;72.90;40.30;;;;;;;9.70;100.00;98678.09;6213923;23;20016;-83
2022/03/09 02:45:34;;;;;;;78.53;40.88;;;;;;;9.75;100.00;98680.91;6188851;23;20013;-83
2022/03/09 02:48:14;;;;;;;78.90;43.40;;;;;;;9.65;100.00;98659.53;6188113;23;20009;-83
2022/03/09 02:50:41;;;;;;;77.68;40.92;;;;;;;9.53;100.00;98625.22;6091835;23;20571;-83
2022/03/09 02:53:06;;;;;;;86.90;43.63;;;;;;;10.05;100.00;98667.47;6097830;23;20097;-83
2022/03/09 02:55:32;;;;;;;81.05;40.85;;;;;;;10.23;100.00;98685.22;6099099;23;20090;-83
2022/03/09 02:57:58;;;;;;;77.75;41.67;;;;;;;10.36;100.00;98675.78;6122902;23;20397;-83
2022/03/09 03:00:23;;;;;;;85.55;42.92;;;;;;;10.38;100.00;98687.66;6097991;23;20052;-84
2022/03/09 03:02:49;;;;;;;80.38;40.70;;;;;;;10.36;100.00;98687.06;6097757;23;20022;-83
2022/03/09 03:05:15;;;;;;;79.38;39.17;;;;;;;10.47;100.00;98692.75;6098754;23;20460;-82
2022/03/09 03:07:41;;;;;;;74.05;39.20;;;;;;;10.47;100.00;98698.00;6074505;23;20025;-83
2022/03/09 03:10:07;;;;;;;78.38;39.65;;;;;;;10.83;100.00;98696.75;6098571;23;20056;-81
2022/03/09 03:12:33;;;;;;;77.10;39.80;;;;;;;10.64;100.00;98701.00;6073791;23;20475;-83
2022/03/09 03:14:58;;;;;;;77.97;39.97;;;;;;;10.57;100.00;98709.69;6098721;23;20014;-82
2022/03/09 03:17:24;;;;;;;74.30;40.50;;;;;;;10.62;100.00;98695.97;6098293;23;20021;-82
2022/03/09 03:19:50;;;;;;;73.07;39.55;;;;;;;10.70;100.00;98697.56;6098707;23;20078;-83
2022/03/09 03:22:16;;;;;;;71.68;38.00;;;;;;;10.72;100.00;98700.81;6098355;23;20056;-83
2022/03/09 03:24:42;;;;;;;73.35;38.13;;;;;;;10.77;100.00;98700.19;6098099;23;20018;-82
2022/03/09 03:27:07;;;;;;;79.82;39.03;;;;;;;10.54;100.00;98699.63;6131480;23;20021;-83
2022/03/09 03:29:33;;;;;;;71.85;38.72;;;;;;;10.64;100.00;98709.69;6188554;23;20020;-83
2022/03/09 03:32:36;;;;;;;70.97;36.30;;;;;;;10.60;100.00;98702.44;6188343;23;20019;-83
2022/03/09 03:35:03;;;;;;;76.25;39.15;;;;;;;10.71;100.00;98701.81;6188661;23;20067;-82
2022/03/09 03:37:29;;;;;;;70.85;37.80;;;;;;;10.90;100.00;98676.53;6214068;23;20012;-82
2022/03/09 03:39:54;;;;;;;69.10;38.15;;;;;;;10.69;100.00;98675.78;6188157;23;20019;-82
2022/03/09 03:42:20;;;;;;;65.95;35.67;;;;;;;10.76;100.00;98688.06;6162895;23;20020;-82
2022/03/09 03:44:46;;;;;;;67.70;34.88;;;;;;;10.90;100.00;98691.47;6214846;23;20016;-81
2022/03/09 03:47:14;;;;;;;69.78;36.92;;;;;;;10.77;100.00;98681.81;6188107;23;20015;-82
2022/03/09 03:49:40;;;;;;;63.75;34.45;;;;;;;10.61;100.00;98673.38;6188110;23;20012;-83
2022/03/09 03:52:05;;;;;;;68.80;32.65;;;;;;;10.47;100.00;98667.31;6187668;23;20009;-83
2022/03/09 03:54:31;;;;;;;62.33;31.48;;;;;;;10.65;100.00;98669.31;6187661;23;20009;-82
2022/03/09 03:56:57;;;;;;;57.22;31.27;;;;;;;10.74;100.00;98666.47;6213698;23;20453;-82
2022/03/09 03:59:22;;;;;;;66.25;33.72;;;;;;;10.71;100.00;98663.25;6214016;23;20079;-81
2022/03/09 04:01:48;;;;;;;54.03;30.05;;;;;;;10.86;100.00;98662.22;6188278;23;20036;-82
2022/03/09 04:04:13;;;;;;;58.75;31.73;;;;;;;10.93;100.00;98668.25;6188002;23;20016;-82
2022/03/09 04:06:39;;;;;;;63.60;34.38;;;;;;;10.82;100.00;98668.91;6187783;23;20020;-82
2022/03/09 04:09:06;;;;;;;59.28;31.65;;;;;;;10.83;100.00;98665.25;6214459;23;20427;-82
2022/03/09 04:11:32;;;;;;;63.72;31.52;;;;;;;10.85;100.00;98678.97;6215136;23;20013;-82
2022/03/09 04:13:57;;;;;;;58.95;33.03;;;;;;;10.66;100.00;98673.56;6216420;23;20015;-82
2022/03/09 04:16:24;;;;;;;65.30;34.83;;;;;;;10.54;100.00;98665.50;6189514;23;20825;-82
2022/03/09 04:18:50;;;;;;;72.78;34.88;;;;;;;10.60;100.00;98676.19;6216254;23;20015;-83
2022/03/09 04:21:15;;;;;;;67.57;35.83;;;;;;;10.81;100.00;98672.53;6189947;23;20012;-82
2022/03/09 04:23:41;;;;;;;63.67;34.53;;;;;;;11.04;100.00;98687.03;6189449;23;20390;-82
2022/03/09 04:26:07;;;;;;;64.55;33.97;;;;;;;11.15;100.00;98683.75;6215856;23;20327;-83
2022/03/09 04:28:33;;;;;;;62.58;34.13;;;;;;;10.92;100.00;98686.84;6165330;23;20012;-83
2022/03/09 04:30:59;;;;;;;65.07;33.97;;;;;;;10.99;100.00;98685.78;6189143;23;20036;-84
2022/03/09 04:33:25;;;;;;;67.28;34.63;;;;;;;11.04;100.00;98687.03;6216413;23;20017;-83
2022/03/09 04:35:51;;;;;;;65.05;35.67;;;;;;;11.06;100.00;98685.00;6165059;23;20008;-82
2022/03/09 04:38:16;;;;;;;65.50;34.47;;;;;;;11.13;100.00;98698.91;6189303;23;20028;-82
2022/03/09 04:40:42;;;;;;;67.03;36.47;;;;;;;10.94;100.00;98698.75;6189377;23;20016;-82
2022/03/09 04:43:08;;;;;;;61.63;32.60;;;;;;;11.04;100.00;98684.41;6189342;23;20028;-82
2022/03/09 04:45:34;;;;;;;56.65;30.40;;;;;;;10.97;100.00;98695.69;6216258;23;20336;-83
2022/03/09 04:48:00;;;;;;;65.13;33.45;;;;;;;11.03;100.00;98688.03;6216485;23;20156;-82
2022/03/09 04:50:26;;;;;;;59.65;30.10;;;;;;;10.93;100.00;98696.34;6189464;23;20004;-82
2022/03/09 04:52:52;;;;;;;61.70;31.00;;;;;;;10.83;100.00;98692.31;6189617;23;20335;-84
2022/03/09 04:55:18;;;;;;;61.15;31.30;;;;;;;10.98;100.00;98694.69;6188841;23;20008;-82
2022/03/09 04:57:43;;;;;;;61.22;31.02;;;;;;;10.63;100.00;98697.59;6214818;23;20316;-82
2022/03/09 05:00:09;;;;;;;57.88;30.60;;;;;;;10.87;100.00;98697.97;6216017;23;20335;-82
2022/03/09 05:02:36;;;;;;;56.20;28.50;;;;;;;11.00;100.00;98702.38;6189607;23;20008;-82
2022/03/09 05:05:02;;;;;;;58.97;27.80;;;;;;;10.89;100.00;98703.00;6215944;23;20013;-81
2022/03/09 05:07:28;;;;;;;54.95;27.98;;;;;;;10.78;100.00;98701.78;6164747;23;20402;-82
2022/03/09 05:09:54;;;;;;;45.95;26.98;;;;;;;11.00;100.00;98703.19;6163657;23;20017;-82
2022/03/09 05:12:19;;;;;;;46.88;26.90;;;;;;;11.00;100.00;98692.69;6189826;23;20027;-82
2022/03/09 05:14:45;;;;;;;52.08;26.50;;;;;;;10.98;100.00;98686.03;6189262;23;20447;-82
2022/03/09 05:17:11;;;;;;;56.13;28.83;;;;;;;11.09;100.00;98689.84;6189636;23;20047;-82
2022/03/09 05:19:37;;;;;;;53.67;27.90;;;;;;;11.05;100.00;98693.88;6189553;23;20350;-81
2022/03/09 05:22:03;;;;;;;46.95;24.63;;;;;;;11.03;100.00;98698.53;6163770;23;20058;-82
2022/03/09 05:24:29;;;;;;;53.30;27.02;;;;;;;11.05;100.00;98699.13;6188961;23;20016;-84
2022/03/09 05:26:55;;;;;;;53.92;29.15;;;;;;;11.04;100.00;98702.78;6215539;23;20017;-81
2022/03/09 05:29:21;;;;;;;62.05;29.58;;;;;;;10.55;100.00;98693.34;6189441;23;20067;-81
2022/03/09 05:31:47;;;;;;;51.28;26.20;;;;;;;10.57;100.00;98695.75;6216109;23;20021;-83
2022/03/09 05:34:13;;;;;;;49.90;24.70;;;;;;;10.55;100.00;98689.91;6215488;23;20008;-81
2022/03/09 05:36:40;;;;;;;52.63;25.25;;;;;;;10.53;100.00;98695.38;6163977;23;20058;-82
2022/03/09 05:39:06;;;;;;;51.13;22.88;;;;;;;10.63;100.00;98700.22;6215757;23;20407;-80
2022/03/09 05:41:33;;;;;;;39.88;22.13;;;;;;;10.62;100.00;98693.34;6164459;23;20013;-83
2022/03/09 05:43:59;;;;;;;38.83;19.90;;;;;;;10.64;100.00;98699.19;6216221;23;20343;-81
2022/03/09 05:46:25;;;;;;;43.45;21.63;;;;;;;10.75;100.00;98696.97;6188907;23;20028;-81
2022/03/09 05:48:51;;;;;;;40.40;21.35;;;;;;;10.54;100.00;98693.53;6189647;23;20008;-81
2022/03/09 05:51:18;;;;;;;42.75;21.17;;;;;;;10.65;100.00;98706.06;6215090;23;20013;-81
2022/03/09 05:53:44;;;;;;;41.60;21.15;;;;;;;10.68;100.00;98703.03;6188112;23;20012;-79
2022/03/09 05:56:09;;;;;;;41.30;20.27;;;;;;;10.74;100.00;98698.78;6187925;23;20012;-79
2022/03/09 05:58:35;;;;;;;36.60;20.30;;;;;;;10.85;100.00;98697.38;6187731;23;20040;-79
2022/03/09 06:01:01;;;;;;;31.50;17.77;;;;;;;10.67;100.00;98703.22;6188431;23;20009;-80
2022/03/09 06:03:26;;;;;;;36.90;18.45;;;;;;;10.77;100.00;98698.38;6214683;23;20016;-79
2022/03/09 06:05:52;;;;;;;35.22;18.50;;;;;;;10.89;100.00;98698.56;6214711;23;20019;-79
2022/03/09 06:08:18;;;;;;;42.08;19.50;;;;;;;10.64;100.00;98693.94;6188327;23;20108;-80
2022/03/09 06:10:43;;;;;;;40.63;19.27;;;;;;;10.80;100.00;98707.66;6188117;23;20055;-80
2022/03/09 06:13:09;;;;;;;39.10;20.15;;;;;;;10.90;100.00;98700.16;6188092;23;20021;-79
2022/03/09 06:15:35;;;;;;;41.33;18.05;;;;;;;10.89;100.00;98705.63;6214723;23;20032;-79
2022/03/09 06:18:01;;;;;;;42.03;19.95;;;;;;;10.77;100.00;98705.44;6189610;23;20443;-78
2022/03/09 06:20:27;;;;;;;40.80;19.48;;;;;;;10.79;100.00;98706.03;6190254;23;20008;-77
2022/03/09 06:22:53;;;;;;;43.47;20.52;;;;;;;10.46;100.00;98707.66;6219678;23;20067;-78
2022/03/09 06:25:20;;;;;;;35.55;18.25;;;;;;;10.39;100.00;98707.63;6172345;23;20016;-79
2022/03/09 06:27:48;;;;;;;46.72;21.08;;;;;;;10.74;100.00;98708.47;6167321;23;20036;-79
2022/03/09 06:30:15;;;;;;;42.55;20.58;;;;;;;10.88;100.00;98696.13;6190523;23;20347;-80
2022/03/09 06:32:42;;;;;;;43.53;21.45;;;;;;;10.59;100.00;98722.59;6163708;23;20350;-79
2022/03/09 06:35:09;;;;;;;49.10;22.20;;;;;;;10.65;100.00;98716.56;6187863;23;20044;-78
2022/03/09 06:37:34;;;;;;;41.60;23.13;;;;;;;10.83;100.00;98709.88;6187935;23;20016;-79
2022/03/09 06:40:01;;;;;;;42.88;22.67;;;;;;;10.90;100.00;98715.94;6215100;23;20008;-79
2022/03/09 06:42:29;;;;;;;44.47;22.85;;;;;;;10.62;100.00;98716.97;6163451;23;20027;-79
2022/03/09 06:44:55;;;;;;;44.33;20.95;;;;;;;10.73;100.00;98709.47;6188434;23;20013;-80
2022/03/09 06:47:21;;;;;;;41.70;21.98;;;;;;;10.86;100.00;98710.25;6215544;23;20008;-80
2022/03/09 06:49:47;;;;;;;45.30;22.58;;;;;;;10.73;100.00;98676.19;6216697;23;20092;-79
2022/03/09 06:52:13;;;;;;;45.85;21.67;;;;;;;10.73;100.00;98712.09;6163264;23;20020;-81
2022/03/09 06:54:38;;;;;;;40.60;19.95;;;;;;;10.67;100.00;98700.59;6187891;23;20105;-80
2022/03/09 06:57:05;;;;;;;36.13;19.38;;;;;;;10.65;100.00;98721.00;6167657;23;20040;-80
2022/03/09 06:59:30;;;;;;;29.40;16.85;;;;;;;10.73;100.00;98698.97;6164577;23;20455;-77
2022/03/09 07:01:56;;;;;;;36.42;17.38;;;;;;;11.00;100.00;98718.94;6217229;23;20346;-77
2022/03/09 07:04:22;;;;;;;40.58;16.98;;;;;;;10.78;100.00;98715.75;6187632;23;20009;-78
2022/03/09 07:06:48;;;;;;;35.78;16.52;;;;;;;11.20;100.00;98719.91;6163238;23;20025;-79
2022/03/09 07:09:14;;;;;;;32.75;15.27;;;;;;;11.10;100.00;98704.56;6163148;23;20017;-79
2022/03/09 07:11:41;;;;;;;25.30;14.35;;;;;;;11.38;100.00;98720.06;6188487;23;20036;-78
2022/03/09 07:14:07;;;;;;;34.53;14.90;;;;;;;11.46;100.00;98711.13;6188254;23;20497;-79
2022/03/09 07:16:34;;;;;;;21.98;12.77;;;;;;;11.44;100.00;98721.06;6190418;23;20040;-79
2022/03/09 07:18:59;;;;;;;23.33;11.75;;;;;;;11.67;100.00;98725.00;6215565;23;20013;-79
2022/03/09 07:21:26;;;;;;;24.13;11.35;;;;;;;11.41;100.00;98722.25;6189088;23;20347;-79
2022/03/09 07:23:51;;;;;;;21.83;11.77;;;;;;;11.70;100.00;98722.78;6189115;23;20005;-80
2022/03/09 07:26:17;;;;;;;22.70;10.52;;;;;;;11.79;100.00;98714.63;6188799;23;20108;-80
2022/03/09 07:28:43;;;;;;;22.25;11.27;;;;;;;11.93;100.00;98726.69;6165362;23;20012;-80
2022/03/09 07:31:09;;;;;;;21.33;11.02;;;;;;;12.10;100.00;98731.50;6190850;23;20092;-78
2022/03/09 07:33:34;;;;;;;20.35;10.60;;;;;;;12.02;100.00;98719.38;6187550;23;20096;-77
2022/03/09 07:36:01;;;;;;;21.55;10.48;;;;;;;12.22;100.00;98735.03;6215941;23;20075;-77
2022/03/09 07:38:27;;;;;;;27.60;10.30;;;;;;;12.35;100.00;98744.66;6164164;23;20355;-79
2022/03/09 07:40:53;;;;;;;21.92;10.60;;;;;;;12.40;100.00;98742.22;6186718;23;20044;-78
2022/03/09 07:43:19;;;;;;;28.50;11.73;;;;;;;12.42;100.00;98744.63;6187341;23;20343;-79
2022/03/09 07:45:45;;;;;;;24.27;12.80;;;;;;;12.56;100.00;98743.50;6213973;23;20013;-78
2022/03/09 07:48:11;;;;;;;25.58;12.05;;;;;;;12.46;100.00;98739.75;6164242;23;20016;-79
2022/03/09 07:50:37;;;;;;;27.50;12.10;;;;;;;12.38;100.00;98717.13;6190389;23;20023;-79
2022/03/09 07:53:05;;;;;;;21.83;12.18;;;;;;;12.55;100.00;98733.19;6164710;23;20023;-81
2022/03/09 07:55:30;;;;;;;26.67;11.18;;;;;;;12.13;100.00;98726.59;6218143;23;20070;-82
2022/03/09 07:57:56;;;;;;;22.65;11.68;;;;;;;12.26;100.00;98736.22;6166290;23;20413;-82
2022/03/09 08:00:22;;;;;;;23.45;11.52;;;;;;;12.22;100.00;98718.47;6191595;23;20032;-85
2022/03/09 08:02:48;;;;;;;22.38;11.38;;;;;;;12.14;100.00;98737.94;6165565;23;20008;-80
2022/03/09 08:05:15;;;;;;;26.23;11.05;;;;;;;12.23;100.00;98730.59;6191783;23;20055;-84
2022/03/09 08:07:41;;;;;;;22.60;10.05;;;;;;;12.42;100.00;98742.81;6192166;23;20019;-81
2022/03/09 08:10:08;;;;;;;30.65;11.60;;;;;;;12.46;100.00;98740.53;6217607;23;20023;-80
2022/03/09 08:12:35;;;;;;;25.23;11.15;;;;;;;12.35;100.00;98728.88;6166739;23;20012;-80
2022/03/09 08:15:01;;;;;;;26.83;11.43;;;;;;;12.54;100.00;98726.31;6190976;23;20034;-82
2022/03/09 08:17:30;;;;;;;20.75;10.55;;;;;;;12.49;100.00;98719.06;6165202;23;20023;-81
2022/03/09 08:19:56;;;;;;;21.88;10.35;;;;;;;12.47;100.00;98746.63;6165494;23;20403;-82
2022/03/09 08:22:22;;;;;;;21.85;9.20;;;;;;;12.48;100.00;98740.34;6165084;23;20016;-84
2022/03/09 08:24:48;;;;;;;26.88;11.38;;;;;;;12.83;100.00;98755.66;6165221;23;20022;-82
2022/03/09 08:27:14;;;;;;;22.48;10.73;;;;;;;13.05;100.00;98757.88;6189191;23;20016;-82
2022/03/09 08:29:40;;;;;;;24.15;10.10;;;;;;;12.88;100.00;98749.75;6188950;23;20012;-82
2022/03/09 08:32:06;;;;;;;26.17;10.65;;;;;;;13.24;100.00;98746.34;6165789;23;20371;-87
2022/03/09 08:34:32;;;;;;;23.02;10.40;;;;;;;13.46;100.00;98758.28;6167177;23;20470;-82
2022/03/09 08:36:58;;;;;;;27.65;10.55;;;;;;;13.20;100.00;98749.63;6165070;23;20020;-82
2022/03/09 08:39:23;;;;;;;19.98;9.13;;;;;;;13.28;100.00;98741.44;6177439;23;20320;-82
2022/03/09 08:41:49;;;;;;;26.50;11.32;;;;;;;13.46;100.00;98738.00;6189574;23;20012;-82
2022/03/09 08:44:16;;;;;;;31.00;10.93;;;;;;;13.20;100.00;98754.88;6189483;23;20012;-83
2022/03/09 08:46:42;;;;;;;22.55;10.65;;;;;;;13.36;100.00;98743.78;6164432;23;20016;-81
2022/03/09 08:49:08;;;;;;;29.40;11.27;;;;;;;13.69;100.00;98747.06;6164470;23;20350;-81
2022/03/09 08:51:34;;;;;;;21.38;9.77;;;;;;;13.50;100.00;98741.03;6189651;23;20083;-80
2022/03/09 08:54:00;;;;;;;20.92;9.75;;;;;;;13.16;100.00;98728.16;6189244;23;20012;-80
2022/03/09 08:56:28;;;;;;;21.92;10.75;;;;;;;12.88;100.00;98731.31;6163696;23;20059;-79
2022/03/09 08:58:55;;;;;;;27.70;9.98;;;;;;;13.14;100.00;98722.31;6188921;23;20020;-79
2022/03/09 09:01:22;;;;;;;21.40;9.25;;;;;;;13.66;100.00;98736.97;6187881;23;20020;-80
2022/03/09 09:03:49;;;;;;;19.00;9.02;;;;;;;13.65;100.00;98725.59;6163721;23;20008;-80
2022/03/09 09:06:14;;;;;;;21.85;8.50;;;;;;;14.12;100.00;98732.88;6188371;23;20159;-82
2022/03/09 09:08:40;;;;;;;19.40;8.75;;;;;;;13.99;100.00;98725.19;6189886;23;20013;-81
2022/03/09 09:11:06;;;;;;;20.55;8.93;;;;;;;14.46;100.00;98728.97;6189027;23;20013;-83
2022/03/09 09:13:32;;;;;;;24.42;8.07;;;;;;;13.82;100.00;98723.16;6190843;23;20447;-83
2022/03/09 09:15:59;;;;;;;21.48;8.50;;;;;;;14.38;100.00;98724.81;6190723;23;20335;-82
2022/03/09 09:18:25;;;;;;;16.23;8.57;;;;;;;14.46;99.40;98713.94;6191091;23;20035;-83
2022/03/09 09:20:53;;;;;;;19.10;7.82;;;;;;;14.25;99.92;98724.00;6193975;23;20012;-82
2022/03/09 09:23:22;;;;;;;18.08;8.13;;;;;;;14.18;99.69;98711.94;6218712;23;20013;-82
2022/03/09 09:25:48;;;;;;;19.02;7.10;;;;;;;14.46;98.41;98723.69;6167079;23;20019;-83
2022/03/09 09:28:15;;;;;;;18.10;6.63;;;;;;;14.82;97.46;98719.25;6218578;23;20085;-83
2022/03/09 09:30:41;;;;;;;20.77;7.38;;;;;;;14.77;97.21;98724.44;6218439;23;20012;-82
2022/03/09 09:33:08;;;;;;;19.85;6.72;;;;;;;14.80;97.08;98734.53;6192056;23;20071;-82
2022/03/09 09:35:33;;;;;;;18.55;8.18;;;;;;;14.59;95.04;98723.47;6191838;23;20008;-81
2022/03/09 09:38:06;;;;;;;17.40;6.65;;;;;;;14.38;96.86;98720.34;6218226;23;20356;-82
2022/03/09 09:40:41;;;;;;;20.13;8.40;;;;;;;14.73;96.52;98713.50;6167145;23;20019;-82
2022/03/09 09:43:09;;;;;;;22.80;7.32;;;;;;;14.54;97.67;98725.97;6190878;23;20462;-79
2022/03/09 09:45:35;;;;;;;18.25;6.93;;;;;;;14.71;97.11;98731.44;6166416;23;20009;-82
2022/03/09 09:48:03;;;;;;;14.95;7.47;;;;;;;15.10;95.46;98725.66;6192822;23;20044;-79
2022/03/09 09:50:29;;;;;;;19.80;7.80;;;;;;;15.49;95.64;98725.94;6218553;23;20013;-80
2022/03/09 09:52:55;;;;;;;19.20;7.22;;;;;;;15.55;92.78;98725.00;6192974;23;20019;-81
2022/03/09 09:55:25;;;;;;;19.40;8.48;;;;;;;15.03;93.92;98732.91;6192558;23;20095;-81
2022/03/09 09:57:51;;;;;;;19.45;8.77;;;;;;;14.53;93.93;98719.06;6166643;23;20020;-81
2022/03/09 10:00:18;;;;;;;20.65;8.23;;;;;;;14.42;95.46;98737.34;6217786;23;20020;-81
2022/03/09 10:02:43;;;;;;;19.17;7.20;;;;;;;14.24;95.80;98734.78;6191466;23;20052;-80
2022/03/09 10:05:15;;;;;;;21.95;6.57;;;;;;;13.74;95.00;98718.19;6190962;23;20009;-80
2022/03/09 10:08:02;;;;;;;14.38;6.60;;;;;;;13.99;94.44;98725.97;6190428;23;20066;-79
2022/03/09 10:10:32;;;;;;;14.98;5.68;;;;;;;13.72;96.10;98730.78;6217242;23;20009;-82
2022/03/09 10:13:35;;;;;;;19.85;6.30;;;;;;;13.85;95.06;98719.25;6191206;23;20016;-83
2022/03/09 10:16:20;;;;;;;17.35;5.63;;;;;;;14.04;94.57;98712.13;6163332;23;20083;-81
2022/03/09 10:18:56;;;;;;;9.77;4.30;;;;;;;14.41;94.02;98729.63;6217365;23;20013;-81
2022/03/09 10:21:25;;;;;;;16.00;5.00;;;;;;;14.94;93.21;98735.91;6217132;23;20012;-82
2022/03/09 10:24:01;;;;;;;17.98;5.25;;;;;;;14.98;92.60;98730.97;6189534;23;20347;-81
2022/03/09 10:26:36;;;;;;;12.70;5.18;;;;;;;14.96;92.71;98733.84;6164452;23;20070;-81
2022/03/09 10:29:14;;;;;;;16.67;5.07;;;;;;;14.98;90.79;98733.59;6190839;23;20012;-81
2022/03/09 10:31:44;;;;;;;21.33;5.32;;;;;;;14.38;92.23;98706.31;6216447;23;20066;-81
2022/03/09 10:34:14;;;;;;;22.88;5.70;;;;;;;14.06;92.97;98725.09;6216269;23;20008;-85
2022/03/09 10:36:56;;;;;;;11.85;5.30;;;;;;;14.18;92.78;98738.31;6190403;23;20016;-81
2022/03/09 10:39:25;;;;;;;13.32;5.07;;;;;;;14.41;93.78;98743.66;6190060;23;20016;-82
2022/03/09 10:41:51;;;;;;;16.85;5.72;;;;;;;14.60;92.21;98719.78;6190349;23;20455;-81
2022/03/09 10:44:17;;;;;;;12.57;4.93;;;;;;;15.05;91.45;98721.09;6163802;23;20332;-80
2022/03/09 10:46:47;;;;;;;13.77;5.38;;;;;;;15.30;90.14;98732.41;6190247;23;20012;-81
2022/03/09 10:49:16;;;;;;;13.63;4.95;;;;;;;15.14;90.77;98703.03;6189894;23;20095;-80
2022/03/09 10:51:43;;;;;;;18.80;5.22;;;;;;;15.10;88.91;98723.84;6215681;23;20067;-82
2022/03/09 10:54:18;;;;;;;15.00;5.03;;;;;;;14.96;90.13;98699.50;6216009;23;20363;-83
2022/03/09 10:56:45;;;;;;;12.85;6.03;;;;;;;15.19;89.61;98700.47;6215928;23;20016;-82
2022/03/09 10:59:14;;;;;;;12.38;5.10;;;;;;;15.19;89.25;98711.06;6190292;23;20012;-82
2022/03/09 11:01:43;;;;;;;16.88;4.85;;;;;;;15.74;87.62;98701.00;6215799;23;20040;-82
2022/03/09 11:04:11;;;;;;;17.88;5.95;;;;;;;15.60;86.99;98695.19;6165741;23;20013;-81
2022/03/09 11:06:37;;;;;;;10.55;5.38;;;;;;;15.28;86.83;98703.56;6216392;23;20062;-81
2022/03/09 11:09:03;;;;;;;11.20;4.88;;;;;;;15.14;88.24;98710.97;6216674;23;20009;-80
2022/03/09 11:11:31;;;;;;;14.50;5.32;;;;;;;14.80;87.89;98695.69;6216459;23;20009;-82
2022/03/09 11:13:58;;;;;;;11.68;4.78;;;;;;;14.89;89.03;98708.56;6189961;23;20027;-82